Time;durP1;ratioP1;P1;durP2;ratioP2;P2;SDS_P1;SDS_P2;PMS_P1;PMS_P2;Temp;Humidity;BMP_temperature;BMP_pressure;BME280_temperature;BME280_humidity;BME280_pressure;Samples;Min_cycle;Max_cycle;Signal;HPM_P1;HPM_P2
2023/05/29 05:50:53;;;;;;;5.03;1.70;;;;;;;;;;10662339;27;20406;-81
2023/05/29 05:55:55;;;;;;;7.70;1.83;;;;;;;;;;10627382;28;20062;-81
2023/05/29 06:01:01;;;;;;;7.20;2.05;;;;;;;;;;10639450;27;20099;-83
2023/05/29 06:06:01;;;;;;;;;;;;;;;;;;10656269;28;20027;-83
2023/05/29 06:11:03;;;;;;;8.98;2.50;;;;;;;;;;10653769;28;19964;-84
2023/05/29 06:16:04;;;;;;;5.82;1.90;;;;;;;;;;10653855;28;20028;-84
2023/05/29 06:21:07;;;;;;;7.70;2.15;;;;;;;;;;10645294;28;20075;-85
2023/05/29 06:26:08;;;;;;;6.93;2.15;;;;;;;;;;10638438;28;20026;-85
2023/05/29 06:31:09;;;;;;;6.72;2.30;;;;;;;;;;10636760;28;20019;-85
2023/05/29 06:36:10;;;;;;;4.65;1.63;;;;;;;;;;10636803;27;20023;-84
2023/05/29 06:41:11;;;;;;;5.60;1.83;;;;;;;;;;10636470;28;20027;-85
2023/05/29 06:46:21;;;;;;;6.32;2.10;;;;;;;;;;10636001;28;20019;-85
2023/05/29 06:51:22;;;;;;;7.82;1.80;;;;;;;;;;10634844;27;20092;-84
2023/05/29 06:56:23;;;;;;;6.38;2.20;;;;;;;;;;10635504;28;20514;-85
2023/05/29 07:01:33;;;;;;;5.97;1.83;;;;;;;;;;10611780;28;20031;-84
2023/05/29 07:06:35;;;;;;;7.78;2.15;;;;;;;;;;10604310;28;20023;-83
2023/05/29 07:11:41;;;;;;;4.82;1.77;;;;;;;;;;10612904;28;20054;-84
2023/05/29 07:16:42;;;;;;;7.55;2.35;;;;;;;;;;10614087;28;20109;-84
2023/05/29 07:21:43;;;;;;;9.88;2.45;;;;;;;;;;10631802;28;20041;-84
2023/05/29 07:26:44;;;;;;;5.43;1.58;;;;;;;;;;10615889;28;20020;-83
2023/05/29 07:31:46;;;;;;;8.52;2.25;;;;;;;;;;10607089;28;20020;-84
2023/05/29 07:36:58;;;;;;;9.15;2.55;;;;;;;;;;10604309;28;20031;-85
2023/05/29 07:42:01;;;;;;;7.53;1.80;;;;;;;;;;10602119;28;20020;-83
2023/05/29 07:47:07;;;;;;;6.35;2.00;;;;;;;;;;10601464;28;20087;-84
2023/05/29 07:52:09;;;;;;;5.60;1.60;;;;;;;;;;10602992;28;20020;-84
2023/05/29 07:57:10;;;;;;;11.32;2.40;;;;;;;;;;10603083;28;20024;-84
2023/05/29 08:02:11;;;;;;;6.90;1.83;;;;;;;;;;10603343;28;20049;-85
2023/05/29 08:07:12;;;;;;;5.03;1.80;;;;;;;;;;10602791;28;20024;-84
2023/05/29 08:12:13;;;;;;;8.55;3.03;;;;;;;;;;10604054;27;20026;-84
2023/05/29 08:17:14;;;;;;;6.60;2.35;;;;;;;;;;10606695;28;20153;-84
2023/05/29 08:22:16;;;;;;;9.82;2.80;;;;;;;;;;10606216;28;20462;-84
2023/05/29 08:27:17;;;;;;;6.68;2.05;;;;;;;;;;10603720;28;20062;-84
2023/05/29 08:32:18;;;;;;;8.48;2.20;;;;;;;;;;10601158;28;20530;-84
2023/05/29 08:37:19;;;;;;;9.88;2.50;;;;;;;;;;10600546;28;20473;-83
2023/05/29 08:42:22;;;;;;;7.95;1.88;;;;;;;;;;10600832;28;20026;-84
2023/05/29 08:47:26;;;;;;;7.25;2.40;;;;;;;;;;10605135;28;20036;-84
2023/05/29 08:52:28;;;;;;;10.35;2.92;;;;;;;;;;10587295;28;20127;-84
2023/05/29 08:57:30;;;;;;;6.72;1.77;;;;;;;;;;10606127;28;20020;-84
2023/05/29 09:02:35;;;;;;;5.45;1.80;;;;;;;;;;10601888;28;20050;-84
2023/05/29 09:07:40;;;;;;;7.65;2.45;;;;;;;;;;10598083;28;20024;-84
2023/05/29 09:12:41;;;;;;;5.05;1.73;;;;;;;;;;10597663;28;20023;-84
2023/05/29 09:17:42;;;;;;;3.92;1.58;;;;;;;;;;10602147;28;20167;-84
2023/05/29 09:22:54;;;;;;;4.50;1.90;;;;;;;;;;10601014;28;20028;-84
2023/05/29 09:27:56;;;;;;;6.28;2.17;;;;;;;;;;10601735;28;20034;-84
2023/05/29 09:33:02;;;;;;;3.78;1.63;;;;;;;;;;10599780;28;20050;-84
2023/05/29 09:38:04;;;;;;;8.30;2.47;;;;;;;;;;10599866;28;20115;-84
2023/05/29 09:43:19;;;;;;;6.60;3.70;;;;;;;;;;10600999;28;20024;-84
2023/05/29 09:48:27;;;;;;;7.45;2.40;;;;;;;;;;10607279;28;20059;-84
2023/05/29 09:53:29;;;;;;;7.35;2.40;;;;;;;;;;10615128;28;20027;-84
2023/05/29 09:58:51;;;;;;;7.93;2.42;;;;;;;;;;10616366;28;20114;-84
2023/05/29 10:03:53;;;;;;;5.00;2.10;;;;;;;;;;10615991;28;20091;-84
2023/05/29 10:08:55;;;;;;;7.05;1.83;;;;;;;;;;10612963;28;20056;-85
2023/05/29 10:13:58;;;;;;;4.40;1.95;;;;;;;;;;10607879;28;20119;-84
2023/05/29 10:19:01;;;;;;;7.38;2.22;;;;;;;;;;10612637;28;20023;-84
2023/05/29 10:24:06;;;;;;;3.78;1.65;;;;;;;;;;10616704;28;20072;-83
2023/05/29 10:29:22;;;;;;;5.97;2.15;;;;;;;;;;10617019;28;20049;-84
2023/05/29 10:34:44;;;;;;;5.82;2.30;;;;;;;;;;10608391;28;20039;-85
2023/05/29 10:39:58;;;;;;;5.90;2.03;;;;;;;;;;10606615;27;20055;-85
2023/05/29 10:45:00;;;;;;;7.80;2.88;;;;;;;;;;10600971;28;20580;-84
2023/05/29 10:50:01;;;;;;;5.80;2.05;;;;;;;;;;10618417;28;20032;-83
2023/05/29 10:55:04;;;;;;;5.30;2.00;;;;;;;;;;10638995;28;20023;-81
2023/05/29 11:00:06;;;;;;;7.50;2.75;;;;;;;;;;10605914;28;20043;-84
2023/05/29 11:05:20;;;;;;;7.53;2.38;;;;;;;;;;10601192;28;20023;-84
2023/05/29 11:10:40;;;;;;;5.70;2.05;;;;;;;;;;10600225;28;20361;-84
2023/05/29 11:15:44;;;;;;;5.37;2.10;;;;;;;;;;10600698;28;20020;-84
2023/05/29 11:20:53;;;;;;;6.47;2.05;;;;;;;;;;10600415;28;20407;-84
2023/05/29 11:25:54;;;;;;;7.32;2.33;;;;;;;;;;10599387;28;20024;-85
2023/05/29 11:30:56;;;;;;;4.90;1.80;;;;;;;;;;10598029;28;20040;-84
2023/05/29 11:35:58;;;;;;;4.93;2.17;;;;;;;;;;10598440;28;20031;-85
2023/05/29 11:41:03;;;;;;;9.00;3.75;;;;;;;;;;10599641;28;20053;-85
2023/05/29 11:46:15;;;;;;;8.57;4.70;;;;;;;;;;10597515;28;20020;-85
2023/05/29 11:51:19;;;;;;;5.40;2.10;;;;;;;;;;10597883;28;20027;-85
2023/05/29 11:56:20;;;;;;;7.38;2.80;;;;;;;;;;10599517;28;20024;-85
2023/05/29 12:01:23;;;;;;;6.50;2.20;;;;;;;;;;10600936;28;20019;-82
2023/05/29 12:06:34;;;;;;;4.63;2.33;;;;;;;;;;10596148;28;20034;-82
2023/05/29 12:11:35;;;;;;;5.72;2.20;;;;;;;;;;10594481;28;20095;-82
2023/05/29 12:16:36;;;;;;;5.32;2.25;;;;;;;;;;10597296;28;20111;-82
2023/05/29 12:21:42;;;;;;;5.32;1.85;;;;;;;;;;10597751;28;20030;-82
2023/05/29 12:26:43;;;;;;;5.90;2.20;;;;;;;;;;10594128;28;20024;-82
2023/05/29 12:31:45;;;;;;;5.20;2.05;;;;;;;;;;10593449;28;20023;-82
2023/05/29 12:36:48;;;;;;;7.13;2.17;;;;;;;;;;10594516;28;20485;-82
2023/05/29 12:41:49;;;;;;;4.90;1.85;;;;;;;;;;10595796;28;20026;-82
2023/05/29 12:46:57;;;;;;;5.78;2.78;;;;;;;;;;10579185;28;20043;-82
2023/05/29 12:52:07;;;;;;;5.20;2.15;;;;;;;;;;10595112;28;20415;-82
2023/05/29 12:57:08;;;;;;;5.10;2.03;;;;;;;;;;10578823;28;20034;-82
2023/05/29 13:02:09;;;;;;;6.28;2.53;;;;;;;;;;10595574;28;20028;-83
2023/05/29 13:07:11;;;;;;;5.80;2.33;;;;;;;;;;10596815;28;20027;-82
2023/05/29 13:12:12;;;;;;;4.50;2.28;;;;;;;;;;10595640;28;20024;-83
2023/05/29 13:17:13;;;;;;;7.57;2.47;;;;;;;;;;10596229;28;20112;-82
2023/05/29 13:22:14;;;;;;;5.50;2.20;;;;;;;;;;10593237;28;20035;-83
2023/05/29 13:27:16;;;;;;;7.45;2.40;;;;;;;;;;10595981;28;20028;-83
2023/05/29 13:32:17;;;;;;;6.95;2.33;;;;;;;;;;10599295;28;20115;-83
2023/05/29 13:37:18;;;;;;;6.55;2.20;;;;;;;;;;10598271;28;20065;-83
2023/05/29 13:42:20;;;;;;;4.78;2.17;;;;;;;;;;10595167;28;20381;-83
2023/05/29 13:47:21;;;;;;;6.40;2.25;;;;;;;;;;10596879;28;20412;-83
2023/05/29 13:52:22;;;;;;;4.78;2.20;;;;;;;;;;10596534;28;20063;-83
2023/05/29 13:57:23;;;;;;;5.90;2.55;;;;;;;;;;10596493;28;20475;-83
2023/05/29 14:02:25;;;;;;;5.45;2.35;;;;;;;;;;10596791;28;20020;-82
2023/05/29 14:07:26;;;;;;;7.20;2.40;;;;;;;;;;10597781;28;20076;-83
2023/05/29 14:12:27;;;;;;;5.68;2.25;;;;;;;;;;10603920;28;20059;-83
2023/05/29 14:17:28;;;;;;;4.55;2.30;;;;;;;;;;10608265;28;20023;-83
2023/05/29 14:22:30;;;;;;;7.05;4.07;;;;;;;;;;10625375;28;20016;-82
2023/05/29 14:27:33;;;;;;;7.50;2.20;;;;;;;;;;10618063;28;20072;-83
2023/05/29 14:32:34;;;;;;;9.20;2.85;;;;;;;;;;10601821;28;20023;-83
2023/05/29 14:37:36;;;;;;;8.02;3.25;;;;;;;;;;10602314;28;20027;-82
2023/05/29 14:42:37;;;;;;;8.65;2.45;;;;;;;;;;10602673;28;20024;-83
2023/05/29 14:47:41;;;;;;;5.22;2.55;;;;;;;;;;10601541;28;20549;-84
2023/05/29 14:52:42;;;;;;;5.47;2.28;;;;;;;;;;10584850;28;20397;-83
2023/05/29 14:57:43;;;;;;;9.43;3.72;;;;;;;;;;10600980;28;20027;-83
2023/05/29 15:02:44;;;;;;;5.35;2.10;;;;;;;;;;10599899;28;20062;-82
2023/05/29 15:07:45;;;;;;;7.03;2.80;;;;;;;;;;10601740;28;20126;-83
2023/05/29 15:12:47;;;;;;;6.75;2.42;;;;;;;;;;10600112;28;20047;-83
2023/05/29 15:18:03;;;;;;;4.95;1.98;;;;;;;;;;10605346;28;20028;-82
2023/05/29 15:23:05;;;;;;;5.97;2.22;;;;;;;;;;10599301;28;20079;-82
2023/05/29 15:28:06;;;;;;;4.90;2.15;;;;;;;;;;10600097;28;20081;-83
2023/05/29 15:33:09;;;;;;;5.22;2.00;;;;;;;;;;10602466;28;20099;-82
2023/05/29 15:38:12;;;;;;;6.97;2.60;;;;;;;;;;10604144;28;20026;-82
2023/05/29 15:43:13;;;;;;;5.63;2.35;;;;;;;;;;10604127;28;20024;-83
2023/05/29 15:48:15;;;;;;;5.60;2.30;;;;;;;;;;10614672;28;20093;-82
2023/05/29 15:53:20;;;;;;;5.13;2.13;;;;;;;;;;10610472;28;20023;-82
2023/05/29 15:58:21;;;;;;;4.03;2.35;;;;;;;;;;10598154;28;20035;-83
2023/05/29 16:03:23;;;;;;;4.03;1.70;;;;;;;;;;10598313;28;20042;-82
2023/05/29 16:08:27;;;;;;;5.22;2.10;;;;;;;;;;10597827;28;20543;-85
2023/05/29 16:13:32;;;;;;;7.53;2.80;;;;;;;;;;10598788;28;20115;-82
2023/05/29 16:18:33;;;;;;;7.13;3.08;;;;;;;;;;10599785;28;20039;-84
2023/05/29 16:23:36;;;;;;;7.20;2.70;;;;;;;;;;10600141;28;20081;-83
2023/05/29 16:28:37;;;;;;;8.50;5.85;;;;;;;;;;10597633;28;20081;-83
2023/05/29 16:33:39;;;;;;;4.50;2.00;;;;;;;;;;10597127;28;20496;-82
2023/05/29 16:38:40;;;;;;;6.57;2.58;;;;;;;;;;10600047;28;20031;-83
2023/05/29 16:43:41;;;;;;;5.15;2.20;;;;;;;;;;10593695;28;20497;-83
2023/05/29 16:48:44;;;;;;;5.70;2.50;;;;;;;;;;10600748;28;20066;-83
2023/05/29 16:53:45;;;;;;;6.53;2.72;;;;;;;;;;10579337;28;20024;-83
2023/05/29 16:58:46;;;;;;;5.75;2.70;;;;;;;;;;10597451;28;20027;-82
2023/05/29 17:03:47;;;;;;;6.20;2.95;;;;;;;;;;10595889;28;20122;-84
2023/05/29 17:08:48;;;;;;;5.35;2.70;;;;;;;;;;10592741;28;20530;-82
2023/05/29 17:13:49;;;;;;;5.22;2.30;;;;;;;;;;10590369;28;20217;-82
2023/05/29 17:18:51;;;;;;;8.07;2.40;;;;;;;;;;10592481;28;20031;-82
2023/05/29 17:23:54;;;;;;;6.57;2.47;;;;;;;;;;10595451;28;20020;-83
2023/05/29 17:28:55;;;;;;;10.40;2.75;;;;;;;;;;10594494;28;20029;-82
2023/05/29 17:33:58;;;;;;;7.20;2.42;;;;;;;;;;10593800;28;20031;-81
2023/05/29 17:39:01;;;;;;;6.75;1.98;;;;;;;;;;10595310;28;20070;-83
2023/05/29 17:44:04;;;;;;;9.02;2.40;;;;;;;;;;10595853;28;20380;-82
2023/05/29 17:49:06;;;;;;;7.43;2.78;;;;;;;;;;10606047;28;20045;-83
2023/05/29 17:54:10;;;;;;;6.55;2.40;;;;;;;;;;10624879;28;20039;-83
2023/05/29 17:59:11;;;;;;;4.78;1.90;;;;;;;;;;10599219;28;20035;-82
2023/05/29 18:04:14;;;;;;;7.38;2.60;;;;;;;;;;10544217;22;20067;-84
2023/05/29 18:20:46;;;;;;;7.25;2.25;;;;;;;;;;10479322;28;20021;-83
2023/05/29 18:32:06;;;;;;;5.70;2.83;;;;;;;;;;10476847;28;20041;-83
2023/05/29 18:38:12;;;;;;;8.55;3.10;;;;;;;;;;10394266;28;20037;-82
2023/05/29 18:43:53;;;;;;;7.25;2.70;;;;;;;;;;10307397;28;20154;-83
2023/05/29 18:49:48;;;;;;;3.22;1.60;;;;;;;;;;10273281;29;20031;-82
2023/05/29 18:55:26;;;;;;;5.85;2.45;;;;;;;;;;10238230;29;20127;-82
2023/05/29 19:00:49;;;;;;;6.97;2.83;;;;;;;;;;10244738;29;20032;-83
2023/05/29 19:05:50;;;;;;;5.85;2.38;;;;;;;;;;10419254;28;20048;-82
2023/05/29 19:10:53;;;;;;;5.03;2.00;;;;;;;;;;10486927;28;20043;-82
